Airfield :
LOGIN :

Register | Disclaimer

   EN    FR    IT 

 










Legend :    VFR   Marginal VFR   IFR   Intensive IFR   Very Intensive IFR
Visi :
Ceiling :
>= 8 km
>= 3000ft
5 to 8 km
1000 to 3000 ft
1500m to 5 km
500 to 1000 ft
800 to 1500m
200 to 500 ft
< 800m
< 200 ft
Symbols :   Thunderstorms  Fog  Heavy snow  Heavy precipitations  Wind > 20 kt
SIGMETs :     Misc.  Thunderstorms  Icing  Turbulence  Mountain Waves  Volcanic Ashes






- Airport Elevation : 87 ft
- IATA code : FSC


LFKF - Figari

CURRENT METAR :
  • 250330Z AUTO 26020KT 9999 FEW025 BKN030 BKN100 12/08 Q1006 TEMPO 27030G45KT

EXPIRED METARs :
  • 250300Z AUTO 27018G31KT 9999 FEW030 BKN120 OVC240 12/07 Q1006 NOSIG
  • 250230Z AUTO 26017KT 9999 SCT029 BKN040 BKN064 12/07 Q1007
  • 250200Z AUTO 26019G31KT 9999 SCT029 BKN037 BKN043 12/06 Q1007
  • 250130Z AUTO 27017KT 9999 FEW031 SCT040 BKN046 12/06 Q1007
  • 250100Z AUTO 26017KT 9999 SCT036/// BKN044/// ///CB 11/06 Q1007

TAF TAF LFKF
Valid from the 25 at 03:00 until the 26 at 03:00 UTC


250200Z 2503/2603 27025G35KT 9999 SCT025 BKN040
TEMPO 2505/2509 27030G45KT
TEMPO 2511/2515 RA SCT025 FEW035CB
BECMG 2519/2521 28015G25KT
BECMG 2521/2523 30010KT



MET'MAP, your aeronautical weather chart ! - Copyright ORBIFLY December 2007 - Disclaimer

ORBIFLY MET'MAP TEAM :

Programming & Development : Alexandra Zaïnal
Concept & original design : Baudouin d'Aumeries
Assistance for programming : Marc-Olivier Méhu
Technical & hardware support : Manuel Goepfert

Contact : metmap@orbifly.com




SOURCES & CREDITS :

   NOAA